Flight Track Log - Related Links

Times and Time Zones

All times are in EDT time to prevent confusion due to time zone crossing. See the SWA3121 flight status page for this flight to view local times or setup timezone preferences in your user account.

Time Position Orientation Groundspeed Altitude Reporting Facility
EDT Latitude Longitude Course Direction KTS MPH feet Rate Location/Type
Fri 05:43:23 PM 36.1000 -86.6833 180° South 141 162 1,400  Level Nashville TRACON
Fri 05:44:11 PM 36.0667 -86.6833 180° South 174 200 2,800 2,238 Climbing Nashville TRACON
Fri 05:45:29 PM 36.0000 -86.6500 158° South 239 275 6,100 2,718 Climbing Nashville TRACON
Fri 05:46:08 PM 35.9478 -86.6161 152° Southeast 269 310 8,100 2,970 Climbing Memphis Center
Fri 05:47:08 PM 35.8903 -86.5778 152° Southeast 274 315 11,000 2,750 Climbing Memphis Center
Fri 05:48:08 PM 35.8094 -86.5250 152° Southeast 306 352 13,600 2,850 Climbing Memphis Center
Fri 05:49:08 PM 35.7242 -86.4678 151° Southeast 339 390 16,700 2,870 Climbing Memphis Center
Fri 05:50:49 PM 35.5533 -86.4281 169° South 370 426 21,300 2,609 Climbing Atlanta Center
Fri 05:51:49 PM 35.4453 -86.4044 170° South 397 457 23,700 2,300 Climbing Atlanta Center
Fri 05:52:49 PM 35.3375 -86.3683 165° South 402 463 25,900 2,000 Climbing Atlanta Center
Fri 05:53:49 PM 35.2467 -86.3047 150° Southeast 407 468 27,700 1,950 Climbing Atlanta Center
Fri 05:54:49 PM 35.1378 -86.2206 148° Southeast 419 482 29,800 2,200 Climbing Atlanta Center
Fri 05:55:49 PM 35.0306 -86.1492 151° Southeast 424 488 32,100 2,150 Climbing Atlanta Center
Fri 05:56:49 PM 34.9314 -86.0783 150° Southeast 424 488 34,100 1,700 Climbing Atlanta Center
Fri 05:57:49 PM 34.8347 -86.0025 147° Southeast 418 481 35,500 1,450 Climbing Atlanta Center
Fri 05:58:49 PM 34.7336 -85.9294 149° Southeast 413 475 37,000 750 Climbing Atlanta Center
Fri 05:59:49 PM 34.6322 -85.8614 151° Southeast 413 475 37,000  Level Atlanta Center
Fri 06:00:49 PM 34.5289 -85.7936 152° Southeast 413 475 37,000  Level Atlanta Center
Fri 06:01:49 PM 34.4297 -85.7236 150° Southeast 413 475 37,000  Level Atlanta Center
Fri 06:02:49 PM 34.3408 -85.6614 150° Southeast 413 475 37,000  Level Atlanta Center
Fri 06:03:49 PM 34.2417 -85.5917 150° Southeast 413 475 37,000  Level Atlanta Center
Fri 06:04:49 PM 34.1403 -85.5197 150° Southeast 413 475 37,000  Level Atlanta Center
Fri 06:05:49 PM 34.0408 -85.4503 150° Southeast 411 473 37,000  Level Atlanta Center
Fri 06:06:49 PM 33.9392 -85.3833 151° Southeast 411 473 37,000  Level Atlanta Center
Fri 06:07:49 PM 33.8378 -85.3117 150° Southeast 411 473 37,000  Level Atlanta Center
Fri 06:08:49 PM 33.7361 -85.2428 151° Southeast 411 473 37,000  Level Atlanta Center
Fri 06:09:49 PM 33.6347 -85.1717 150° Southeast 416 479 37,000  Level Atlanta Center
Fri 06:10:49 PM 33.5331 -85.1031 151° Southeast 416 479 37,000  Level Atlanta Center
Fri 06:11:49 PM 33.4208 -85.0269 150° Southeast 416 479 37,000  Level Atlanta Center
Fri 06:12:49 PM 33.3192 -84.9561 150° Southeast 416 479 37,000  Level Atlanta Center
Fri 06:13:49 PM 33.2153 -84.8856 150° Southeast 416 479 37,000  Level Atlanta Center
Fri 06:14:49 PM 33.1133 -84.8175 151° Southeast 416 479 37,000  Level Atlanta Center
Fri 06:15:49 PM 33.0117 -84.7447 149° Southeast 416 479 37,000  Level Atlanta Center
Fri 06:16:49 PM 32.9097 -84.6747 150° Southeast 416 479 37,000  Level Atlanta Center
Fri 06:17:49 PM 32.8078 -84.6022 149° Southeast 426 490 37,000  Level Atlanta Center
Fri 06:18:49 PM 32.7183 -84.5375 149° Southeast 426 490 37,000  Level Atlanta Center
Fri 06:19:49 PM 32.6142 -84.4656 150° Southeast 426 490 37,000  Level Atlanta Center
Fri 06:20:49 PM 32.5122 -84.3936 149° Southeast 426 490 37,000  Level Atlanta Center
Fri 06:21:49 PM 32.4122 -84.3242 150° Southeast 420 483 37,000  Level Atlanta Center
Fri 06:22:49 PM 32.3078 -84.2525 150° Southeast 426 490 37,000  Level Atlanta Center
Fri 06:24:20 PM 32.1394 -84.1364 150° Southeast 428 493 37,000  Level Jacksonville Center
Fri 06:25:20 PM 32.0358 -84.0639 149° Southeast 428 493 37,000  Level Jacksonville Center
Fri 06:26:20 PM 31.9322 -83.9942 150° Southeast 434 499 37,000  Level Jacksonville Center
Fri 06:27:20 PM 31.8283 -83.9244 150° Southeast 434 499 37,000  Level Jacksonville Center
Fri 06:28:20 PM 31.7244 -83.8453 147° Southeast 442 509 37,000  Level Jacksonville Center
Fri 06:29:20 PM 31.6394 -83.7881 150° Southeast 442 509 37,000  Level Jacksonville Center
Fri 06:30:20 PM 31.5208 -83.7089 150° Southeast 441 507 37,000  Level Jacksonville Center
Fri 06:31:20 PM 31.4233 -83.6253 144° Southeast 441 507 37,000  Level Jacksonville Center
Fri 06:32:20 PM 31.3233 -83.5444 145° Southeast 436 502 37,000  Level Jacksonville Center
Fri 06:33:20 PM 31.2236 -83.4611 144° Southeast 436 502 37,000  Level Jacksonville Center
Fri 06:34:20 PM 31.1217 -83.3781 145° Southeast 441 507 37,000 -1,200 Level Jacksonville Center
Fri 06:35:20 PM 31.0217 -83.2975 145° Southeast 446 513 34,600 -2,700 Descending Jacksonville Center
Fri 06:36:20 PM 30.9217 -83.2147 145° Southeast 446 513 31,600 -2,900 Descending Jacksonville Center
Fri 06:37:20 PM 30.8133 -83.1225 144° Southeast 446 513 28,800 -2,300 Descending Jacksonville Center
Fri 06:38:20 PM 30.7153 -83.0472 147° Southeast 441 507 27,000 -900 Descending Jacksonville Center
Fri 06:39:20 PM 30.6194 -82.9675 144° Southeast 436 502 27,000  Level Jacksonville Center
Fri 06:40:20 PM 30.5211 -82.8903 146° Southeast 431 496 27,000  Level Jacksonville Center
Fri 06:41:20 PM 30.4253 -82.8131 145° Southeast 426 490 27,000 -350 Level Jacksonville Center
Fri 06:42:20 PM 30.3269 -82.7339 145° Southeast 426 490 26,300 -850 Descending Jacksonville Center
Fri 06:43:20 PM 30.2308 -82.6569 145° Southeast 426 490 25,300 -650 Descending Jacksonville Center
Fri 06:44:20 PM 30.1347 -82.5828 146° Southeast 421 484 25,000 -150 Descending Jacksonville Center
Fri 06:45:20 PM 30.0383 -82.5086 146° Southeast 421 484 25,000  Level Jacksonville Center
Fri 06:46:20 PM 29.9358 -82.4394 150° Southeast 421 484 25,000  Level Jacksonville Center
Fri 06:47:20 PM 29.8272 -82.4017 163° South 409 471 25,000  Level Jacksonville Center
Fri 06:48:20 PM 29.7206 -82.3522 158° South 415 478 25,000  Level Jacksonville Center
Fri 06:49:20 PM 29.6242 -82.3025 156° South 415 478 25,000 -150 Level Jacksonville Center
Fri 06:50:20 PM 29.5153 -82.2506 157° South 415 478 24,700 -1,250 Descending Jacksonville Center
Fri 06:51:20 PM 29.4108 -82.1964 156° South 415 478 22,500 -2,150 Descending Jacksonville Center
Fri 06:52:20 PM 29.3081 -82.1447 156° South 415 478 20,400 -2,050 Descending Jacksonville Center
Fri 06:53:20 PM 29.2097 -82.0956 156° South 403 464 18,400 -2,100 Descending Jacksonville Center
Fri 06:54:20 PM 29.1133 -82.0489 157° South 386 444 16,200 -2,100 Descending Jacksonville Center
Fri 06:55:20 PM 29.0192 -82.0117 161° South 373 429 14,200 -2,000 Descending Jacksonville Center
Fri 06:56:20 PM 28.9253 -82.0078 178° South 349 402 12,200 -1,600 Descending Jacksonville Center
Fri 06:57:20 PM 28.8333 -81.9942 173° South 349 402 11,000 -550 Descending Jacksonville Center
Fri 06:58:20 PM 28.7475 -81.9525 157° South 344 396 11,100 -500 Climbing Jacksonville Center
Fri 06:59:20 PM 28.6658 -81.8989 150° Southeast 337 388 10,000 -1,245 Descending Jacksonville Center
Fri 07:00:06 PM 28.6000 -81.8500 147° Southeast 309 356 8,900 -1,514 Descending Orlando TRACON
Fri 07:01:07 PM 28.5500 -81.7833 130° Southeast 299 344 7,300 -1,474 Descending Orlando TRACON
Fri 07:02:00 PM 28.4833 -81.7167 139° Southeast 303 349 6,100 -1,211 Descending Orlando TRACON
Fri 07:03:01 PM 28.4333 -81.6500 130° Southeast 287 330 5,000 -545 Descending Orlando TRACON
Fri 07:04:01 PM 28.3833 -81.6000 139° Southeast 248 285 5,000  Level Orlando TRACON
Fri 07:05:01 PM 28.3333 -81.5500 139° Southeast 243 280 5,000  Level Orlando TRACON
Fri 07:06:01 PM 28.2833 -81.4833 130° Southeast 253 291 5,000 -200 Level Orlando TRACON
Fri 07:08:01 PM 28.1833 -81.3833 139° Southeast 225 259 4,400 -333 Descending Orlando TRACON
Fri 07:09:01 PM 28.1667 -81.3167 106° East 212 244 4,000 -200 Descending Orlando TRACON
Fri 07:10:01 PM 28.2000 -81.2833 41° Northeast 192 221 4,000 -450 Level Orlando TRACON
Fri 07:11:01 PM 28.2667 -81.2833 360° North 217 250 3,100 -900 Descending Orlando TRACON
Fri 07:12:01 PM 28.3167 -81.2833 360° North 155 178 2,200 -800 Descending Orlando TRACON
Fri 07:13:01 PM 28.3500 -81.2833 360° North 127 146 1,500 -700 Descending Orlando TRACON
Fri 07:14:01 PM 28.3833 -81.2833 360° North 133 153 800 -700 Descending Orlando TRACON
Fri 07:16:00 PM 28.4167 -81.3000 24° Northeast  Level FlightAware Approximate
Fri 07:23:00 PM 28.4294 -81.3090 24° Northeast  Level Estimated
Fri 07:24:00 PM 28.4294 -81.3090 24° Northeast  Level Estimated
Fri 07:25:00 PM 28.4294 -81.3090 24° Northeast  Level Estimated
Fri 07:26:00 PM 28.4294 -81.3090 24° Northeast  Level Estimated

Login

Don't have an account? Register now (free) for customized features, flight alerts, and more!